Time;durP1;ratioP1;P1;durP2;ratioP2;P2;SDS_P1;SDS_P2;PMS_P1;PMS_P2;Temp;Humidity;BMP_temperature;BMP_pressure;BME280_temperature;BME280_humidity;BME280_pressure;Samples;Min_cycle;Max_cycle;Signal;HPM_P1;HPM_P2
2021/10/14 00:01:47;;;;;;;9.55;6.65;;;4.40;99.90;;;;;;4915168;29;20111;-72
2021/10/14 00:04:16;;;;;;;10.27;6.78;;;4.20;99.90;;;;;;4914300;29;20446;-72
2021/10/14 00:06:43;;;;;;;9.85;5.88;;;4.20;99.90;;;;;;4914204;29;20063;-72
2021/10/14 00:09:09;;;;;;;9.77;5.50;;;4.10;99.90;;;;;;4915516;29;20550;-72
2021/10/14 00:11:34;;;;;;;7.40;6.10;;;4.10;99.90;;;;;;4915631;29;20032;-73
2021/10/14 00:14:00;;;;;;;10.00;7.70;;;4.10;99.90;;;;;;4915621;29;20502;-72
2021/10/14 00:16:26;;;;;;;10.98;7.03;;;4.20;99.90;;;;;;4914821;29;20036;-72
2021/10/14 00:18:51;;;;;;;12.57;8.05;;;4.20;99.90;;;;;;4915494;29;20036;-72
2021/10/14 00:21:17;;;;;;;14.98;7.95;;;4.30;99.90;;;;;;4915654;29;20024;-72
2021/10/14 00:23:43;;;;;;;13.32;8.20;;;4.30;99.90;;;;;;4915631;29;20518;-72
2021/10/14 00:26:09;;;;;;;19.00;8.70;;;4.40;99.90;;;;;;4914831;29;20340;-73
2021/10/14 00:28:34;;;;;;;12.98;8.85;;;4.50;99.90;;;;;;4915410;29;20028;-72
2021/10/14 00:31:00;;;;;;;19.48;9.27;;;4.40;99.90;;;;;;4915585;29;20529;-72
2021/10/14 00:33:25;;;;;;;15.85;8.38;;;4.50;99.90;;;;;;4906209;29;20520;-72
2021/10/14 00:35:51;;;;;;;14.38;8.90;;;4.40;99.90;;;;;;4894964;29;20397;-72
2021/10/14 00:38:17;;;;;;;16.50;9.70;;;4.50;99.90;;;;;;4911189;29;20100;-73
2021/10/14 00:40:44;;;;;;;14.18;9.75;;;4.50;99.90;;;;;;4896476;29;20111;-72
2021/10/14 00:43:10;;;;;;;20.95;10.80;;;4.50;99.90;;;;;;4896537;29;20080;-73
2021/10/14 00:45:36;;;;;;;12.20;9.00;;;4.50;99.90;;;;;;4895941;29;20515;-72
2021/10/14 00:48:01;;;;;;;17.20;9.68;;;4.40;99.90;;;;;;4896395;29;20044;-72
2021/10/14 00:50:27;;;;;;;14.63;9.65;;;4.30;99.90;;;;;;4896419;29;20033;-72
2021/10/14 00:52:54;;;;;;;15.43;9.32;;;4.30;99.90;;;;;;4896985;29;20085;-73
2021/10/14 00:55:21;;;;;;;17.08;10.40;;;4.30;99.90;;;;;;4896124;29;20045;-72
2021/10/14 00:57:48;;;;;;;13.07;9.75;;;4.20;99.90;;;;;;4896641;29;20025;-72
2021/10/14 01:00:15;;;;;;;12.75;9.77;;;4.10;99.90;;;;;;4896837;29;20036;-72
2021/10/14 01:02:41;;;;;;;16.95;9.32;;;4.10;99.90;;;;;;4899820;29;20179;-72
2021/10/14 01:05:07;;;;;;;17.55;9.95;;;4.20;99.90;;;;;;4914475;29;20387;-72
2021/10/14 01:07:33;;;;;;;15.25;11.48;;;4.30;99.90;;;;;;4915007;29;20032;-72
2021/10/14 01:09:59;;;;;;;32.65;11.65;;;4.30;99.90;;;;;;4914971;29;20032;-72
2021/10/14 01:12:26;;;;;;;20.02;12.68;;;4.60;99.90;;;;;;4913992;29;20059;-72
2021/10/14 01:14:51;;;;;;;16.67;11.15;;;4.60;99.90;;;;;;4918052;29;20036;-72
2021/10/14 01:17:17;;;;;;;19.00;11.18;;;4.50;99.90;;;;;;4933304;29;20043;-72
2021/10/14 01:19:43;;;;;;;16.02;10.32;;;4.40;99.90;;;;;;4918406;29;20028;-72
2021/10/14 01:22:10;;;;;;;16.17;10.43;;;4.30;99.90;;;;;;4918663;29;20024;-72
2021/10/14 01:24:36;;;;;;;17.10;10.02;;;4.30;99.90;;;;;;4917112;29;20028;-72
2021/10/14 01:27:06;;;;;;;15.27;9.52;;;4.30;99.90;;;;;;4918281;29;20043;-72
2021/10/14 01:29:33;;;;;;;13.10;8.68;;;4.20;99.90;;;;;;4918398;29;20024;-72
2021/10/14 01:31:59;;;;;;;14.07;8.55;;;4.10;99.90;;;;;;4918393;29;20021;-71
2021/10/14 01:34:25;;;;;;;18.08;9.95;;;4.00;99.90;;;;;;4917522;29;20494;-72
2021/10/14 01:36:51;;;;;;;35.28;9.82;;;4.00;99.90;;;;;;4917949;29;20067;-71
2021/10/14 01:39:16;;;;;;;17.35;9.52;;;3.80;99.90;;;;;;4917937;29;20059;-71
2021/10/14 01:41:46;;;;;;;13.75;9.10;;;3.70;99.90;;;;;;4918158;29;20119;-71
2021/10/14 01:44:12;;;;;;;12.98;8.68;;;3.70;99.90;;;;;;4918062;29;20032;-71
2021/10/14 01:46:38;;;;;;;10.88;8.38;;;3.50;99.90;;;;;;4917490;29;20677;-72
2021/10/14 01:49:04;;;;;;;22.10;8.55;;;3.40;99.90;;;;;;4918065;29;20107;-72
2021/10/14 01:51:30;;;;;;;10.30;8.48;;;3.60;99.90;;;;;;4916923;29;20104;-72
2021/10/14 01:53:55;;;;;;;11.00;8.43;;;3.70;99.90;;;;;;4917900;29;20095;-72
2021/10/14 01:56:21;;;;;;;10.30;8.18;;;3.70;99.90;;;;;;4916639;29;20031;-72
2021/10/14 01:58:47;;;;;;;12.77;8.43;;;3.80;99.90;;;;;;4919158;29;20075;-72
2021/10/14 02:01:12;;;;;;;15.38;10.02;;;3.90;99.90;;;;;;4918341;29;20414;-72
2021/10/14 02:03:38;;;;;;;40.47;11.50;;;4.00;99.90;;;;;;4917586;29;20353;-72
2021/10/14 02:06:04;;;;;;;25.35;10.70;;;4.00;99.90;;;;;;4917084;29;20375;-72
2021/10/14 02:08:29;;;;;;;35.03;10.80;;;3.90;99.90;;;;;;4916993;29;20636;-71
2021/10/14 02:10:55;;;;;;;27.95;10.05;;;3.60;99.90;;;;;;4917714;29;20091;-72
2021/10/14 02:13:20;;;;;;;24.00;9.75;;;3.30;99.90;;;;;;4917686;29;20101;-72
2021/10/14 02:15:46;;;;;;;25.15;10.77;;;3.40;99.90;;;;;;4916703;29;20147;-72
2021/10/14 02:18:12;;;;;;;17.30;10.10;;;3.20;99.90;;;;;;4916979;29;20127;-72
2021/10/14 02:20:37;;;;;;;15.90;10.52;;;3.40;99.90;;;;;;4917242;29;20043;-71
2021/10/14 02:23:03;;;;;;;19.65;11.20;;;3.40;99.90;;;;;;4917183;29;20036;-72
2021/10/14 02:25:29;;;;;;;16.63;11.27;;;3.40;99.90;;;;;;4915983;29;20507;-72
2021/10/14 02:27:55;;;;;;;12.98;9.57;;;3.30;99.90;;;;;;4917181;29;20060;-72
2021/10/14 02:30:20;;;;;;;14.75;10.35;;;3.30;99.90;;;;;;4917680;29;20164;-72
2021/10/14 02:32:46;;;;;;;12.43;9.20;;;3.30;99.90;;;;;;4917842;29;20476;-71
2021/10/14 02:35:12;;;;;;;19.00;9.30;;;3.30;99.90;;;;;;4927315;29;20084;-72
2021/10/14 02:37:38;;;;;;;14.77;8.95;;;3.10;99.90;;;;;;4923050;29;20068;-72
2021/10/14 02:40:05;;;;;;;12.35;8.25;;;3.00;99.90;;;;;;4917913;29;20032;-72
2021/10/14 02:42:31;;;;;;;18.17;9.70;;;2.90;99.90;;;;;;4917056;29;20638;-72
2021/10/14 02:44:57;;;;;;;12.50;9.77;;;3.00;99.90;;;;;;4916124;29;20032;-72
2021/10/14 02:47:22;;;;;;;12.05;9.38;;;3.10;99.90;;;;;;4916821;29;20035;-72
2021/10/14 02:49:48;;;;;;;12.60;9.30;;;3.20;99.90;;;;;;4916615;29;20032;-72
2021/10/14 02:52:13;;;;;;;16.23;9.55;;;3.20;99.90;;;;;;4917373;29;20032;-72
2021/10/14 02:54:39;;;;;;;10.75;8.60;;;3.20;99.90;;;;;;4916381;29;20023;-73
2021/10/14 02:57:05;;;;;;;16.95;10.48;;;3.00;99.90;;;;;;4917087;29;20071;-70
2021/10/14 02:59:30;;;;;;;15.57;11.07;;;3.20;99.90;;;;;;4915617;29;20088;-71
2021/10/14 03:01:56;;;;;;;29.52;11.90;;;3.30;99.90;;;;;;4916840;29;20032;-71
2021/10/14 03:04:22;;;;;;;20.20;10.52;;;3.30;99.90;;;;;;4916053;29;20036;-71
2021/10/14 03:06:48;;;;;;;16.58;11.30;;;3.20;99.90;;;;;;4916189;29;20028;-72
2021/10/14 03:09:13;;;;;;;15.07;11.15;;;3.20;99.90;;;;;;4916736;29;20071;-72
2021/10/14 03:11:39;;;;;;;14.20;10.35;;;3.10;99.90;;;;;;4915336;29;20399;-72
2021/10/14 03:14:05;;;;;;;14.68;10.80;;;3.20;99.90;;;;;;4916808;29;20029;-72
2021/10/14 03:16:30;;;;;;;17.33;11.93;;;3.10;99.90;;;;;;4915898;29;20525;-72
2021/10/14 03:18:56;;;;;;;15.10;10.52;;;3.20;99.90;;;;;;4930531;29;20090;-71
2021/10/14 03:21:22;;;;;;;13.70;10.30;;;3.20;99.90;;;;;;4916872;29;20404;-73
2021/10/14 03:23:49;;;;;;;14.57;10.10;;;3.00;99.90;;;;;;4916492;29;20115;-73
2021/10/14 03:26:15;;;;;;;13.50;9.93;;;3.00;99.90;;;;;;4915530;29;20092;-72
2021/10/14 03:28:41;;;;;;;13.40;9.13;;;2.90;99.90;;;;;;4916066;29;20111;-71
2021/10/14 03:31:07;;;;;;;13.43;9.68;;;2.90;99.90;;;;;;4916142;29;20051;-74
2021/10/14 03:33:33;;;;;;;16.83;11.18;;;2.90;99.90;;;;;;4915924;29;20063;-74
2021/10/14 03:35:59;;;;;;;14.38;10.38;;;3.00;99.90;;;;;;4914900;29;20024;-74
2021/10/14 03:38:25;;;;;;;16.15;10.45;;;3.10;99.90;;;;;;4915587;29;20029;-74
2021/10/14 03:40:50;;;;;;;32.53;12.57;;;3.00;99.90;;;;;;4914545;29;20038;-73
2021/10/14 03:43:16;;;;;;;13.23;10.27;;;2.90;99.90;;;;;;4916085;29;20024;-73
2021/10/14 03:45:42;;;;;;;15.05;10.20;;;2.90;99.90;;;;;;4915185;29;20106;-72
2021/10/14 03:48:08;;;;;;;13.30;9.73;;;2.80;99.90;;;;;;4915821;29;20032;-71
2021/10/14 03:50:33;;;;;;;11.93;8.57;;;2.80;99.90;;;;;;4914246;29;20028;-73
2021/10/14 03:52:59;;;;;;;20.73;10.68;;;2.80;99.90;;;;;;4915811;29;20029;-73
2021/10/14 03:55:24;;;;;;;14.18;10.27;;;2.80;99.90;;;;;;4915221;29;20035;-72
2021/10/14 03:57:50;;;;;;;14.45;9.85;;;2.80;99.90;;;;;;4915683;29;20035;-72
2021/10/14 04:00:16;;;;;;;16.75;9.45;;;2.70;99.90;;;;;;4915906;29;20032;-72
2021/10/14 04:02:41;;;;;;;12.40;9.05;;;2.70;99.90;;;;;;4915759;29;20074;-74
2021/10/14 04:05:08;;;;;;;14.05;9.63;;;2.40;99.90;;;;;;4914599;29;20032;-73
2021/10/14 04:07:34;;;;;;;11.30;8.40;;;2.20;99.90;;;;;;4914641;29;20459;-73
2021/10/14 04:10:00;;;;;;;12.75;9.18;;;2.10;99.90;;;;;;4915762;29;20028;-74
2021/10/14 04:12:26;;;;;;;12.32;8.90;;;2.20;99.90;;;;;;4910110;29;20031;-79
2021/10/14 04:14:52;;;;;;;13.77;10.00;;;2.20;99.90;;;;;;4918033;29;20044;-81
2021/10/14 04:17:18;;;;;;;20.65;9.68;;;2.20;99.90;;;;;;4918455;29;20025;-82
2021/10/14 04:19:44;;;;;;;16.98;10.18;;;2.10;99.90;;;;;;4917158;29;20024;-81
2021/10/14 04:22:10;;;;;;;17.55;9.30;;;2.10;99.90;;;;;;4918635;29;20027;-79
2021/10/14 04:24:38;;;;;;;21.52;10.10;;;2.00;99.90;;;;;;4925012;29;20039;-80
2021/10/14 04:27:03;;;;;;;16.77;11.82;;;2.20;99.90;;;;;;4927291;29;20016;-80
2021/10/14 04:29:29;;;;;;;16.88;11.25;;;2.30;99.90;;;;;;4931021;29;20016;-79
2021/10/14 04:31:55;;;;;;;15.70;10.73;;;2.40;99.90;;;;;;4920711;29;20055;-80
2021/10/14 04:34:21;;;;;;;15.50;11.00;;;2.30;99.90;;;;;;4920722;29;20032;-81
2021/10/14 04:36:47;;;;;;;17.17;11.90;;;2.40;99.90;;;;;;4916811;29;20028;-79
2021/10/14 04:39:13;;;;;;;21.77;12.93;;;2.50;99.90;;;;;;4916989;29;20051;-80
2021/10/14 04:41:39;;;;;;;21.38;12.85;;;2.50;99.90;;;;;;4917105;29;20415;-81
2021/10/14 04:44:04;;;;;;;26.30;13.48;;;2.50;99.90;;;;;;4916941;29;20028;-81
2021/10/14 04:46:31;;;;;;;22.02;12.85;;;2.50;99.90;;;;;;4915322;29;20043;-78
2021/10/14 04:48:57;;;;;;;21.25;12.07;;;2.50;99.90;;;;;;4919295;29;20107;-79
2021/10/14 04:51:23;;;;;;;15.65;11.13;;;2.20;99.90;;;;;;4922657;29;20478;-79
2021/10/14 04:53:48;;;;;;;28.95;12.95;;;2.10;99.90;;;;;;4920774;29;20024;-78
2021/10/14 04:56:14;;;;;;;22.15;13.00;;;2.10;99.90;;;;;;4922725;29;20084;-79
2021/10/14 04:58:40;;;;;;;20.02;13.10;;;2.30;99.90;;;;;;4922241;29;20091;-77
2021/10/14 05:01:05;;;;;;;20.85;13.23;;;2.50;99.90;;;;;;4921726;29;20039;-79
2021/10/14 05:03:31;;;;;;;22.95;13.27;;;2.40;99.90;;;;;;4920735;29;20450;-78
2021/10/14 05:05:57;;;;;;;18.33;11.15;;;2.50;99.90;;;;;;4921595;29;20415;-79
2021/10/14 05:08:22;;;;;;;16.33;11.35;;;2.50;99.90;;;;;;4921748;29;20107;-79
2021/10/14 05:10:48;;;;;;;19.33;13.27;;;2.60;99.90;;;;;;4922777;29;20024;-79
2021/10/14 05:13:14;;;;;;;23.90;13.43;;;2.70;99.90;;;;;;4935397;29;20031;-77
2021/10/14 05:15:41;;;;;;;16.73;13.73;;;2.80;99.90;;;;;;4918056;29;20111;-77
2021/10/14 05:18:07;;;;;;;19.85;12.93;;;3.20;99.90;;;;;;4917890;29;20474;-75
2021/10/14 05:20:32;;;;;;;16.23;11.90;;;3.20;99.90;;;;;;4918075;29;20032;-75
2021/10/14 05:22:58;;;;;;;21.85;12.65;;;3.20;99.90;;;;;;4917835;29;20028;-75
2021/10/14 05:25:24;;;;;;;17.80;12.98;;;3.40;99.90;;;;;;4917363;29;20032;-76
2021/10/14 05:27:50;;;;;;;20.83;12.70;;;3.60;99.90;;;;;;4918226;29;20028;-75
2021/10/14 05:30:17;;;;;;;16.38;12.07;;;3.70;99.90;;;;;;4919315;29;20025;-81
2021/10/14 05:32:43;;;;;;;13.93;10.43;;;3.30;99.90;;;;;;4920383;29;20028;-79
2021/10/14 05:35:08;;;;;;;12.30;9.52;;;3.30;99.90;;;;;;4919417;29;20027;-80
2021/10/14 05:37:34;;;;;;;15.13;10.00;;;3.30;99.90;;;;;;4920184;29;20036;-81
2021/10/14 05:40:00;;;;;;;14.77;10.25;;;3.10;99.90;;;;;;4918833;29;20032;-80
2021/10/14 05:42:26;;;;;;;18.10;10.25;;;3.20;99.90;;;;;;4920131;29;20070;-80
2021/10/14 05:44:52;;;;;;;18.17;11.15;;;3.30;99.90;;;;;;4922279;29;20040;-79
2021/10/14 05:47:17;;;;;;;13.43;9.98;;;3.20;99.90;;;;;;4936017;29;20038;-78
2021/10/14 05:49:43;;;;;;;19.42;11.23;;;3.10;99.90;;;;;;4920577;29;20028;-79
2021/10/14 05:52:09;;;;;;;14.15;10.55;;;3.20;99.90;;;;;;4919936;29;20028;-81
2021/10/14 05:54:34;;;;;;;12.95;10.23;;;3.10;99.90;;;;;;4918658;29;20032;-81
2021/10/14 05:57:00;;;;;;;13.05;8.43;;;3.10;99.90;;;;;;4919765;29;20507;-81
2021/10/14 05:59:26;;;;;;;15.52;8.68;;;3.10;99.90;;;;;;4919784;29;20028;-81
2021/10/14 06:01:52;;;;;;;10.68;7.93;;;3.10;99.90;;;;;;4919892;29;20111;-81
2021/10/14 06:04:17;;;;;;;12.48;7.63;;;3.10;99.90;;;;;;4918212;29;20509;-80
2021/10/14 06:06:43;;;;;;;12.57;7.10;;;3.00;99.90;;;;;;4919163;29;20047;-78
2021/10/14 06:09:09;;;;;;;10.27;6.95;;;3.00;99.90;;;;;;4916498;29;20079;-75
2021/10/14 06:11:34;;;;;;;7.18;6.45;;;3.10;99.90;;;;;;4917969;29;20039;-77
2021/10/14 06:14:00;;;;;;;9.02;7.07;;;3.10;99.90;;;;;;4918203;29;20032;-76
2021/10/14 06:16:26;;;;;;;9.85;7.50;;;3.00;99.90;;;;;;4917631;29;20024;-75
2021/10/14 06:18:52;;;;;;;11.25;7.80;;;3.30;99.90;;;;;;4918574;29;20120;-74
2021/10/14 06:21:17;;;;;;;11.13;8.00;;;3.40;99.90;;;;;;4918273;29;20494;-77
2021/10/14 06:23:43;;;;;;;11.10;8.25;;;3.40;99.90;;;;;;4917710;29;20398;-74
2021/10/14 06:26:09;;;;;;;10.90;7.60;;;3.50;99.90;;;;;;4915632;29;20057;-76
2021/10/14 06:28:35;;;;;;;11.05;7.90;;;3.50;99.90;;;;;;4919290;29;20080;-76
2021/10/14 06:31:00;;;;;;;8.23;7.35;;;3.70;99.90;;;;;;4917822;29;20024;-73
2021/10/14 06:33:26;;;;;;;8.75;7.30;;;3.70;99.90;;;;;;4916187;29;20092;-76
2021/10/14 06:35:52;;;;;;;8.07;6.68;;;3.60;99.90;;;;;;4917201;29;20039;-76
2021/10/14 06:38:17;;;;;;;12.80;6.78;;;3.70;99.90;;;;;;4917542;29;20016;-74
2021/10/14 06:40:43;;;;;;;7.82;6.22;;;3.50;99.90;;;;;;4918419;29;20180;-75
2021/10/14 06:43:09;;;;;;;10.68;6.78;;;3.40;99.90;;;;;;4917492;29;20071;-76
2021/10/14 06:45:36;;;;;;;8.40;6.55;;;3.50;99.90;;;;;;4916883;29;20490;-77
2021/10/14 06:48:02;;;;;;;10.95;6.88;;;3.50;99.90;;;;;;4917281;29;20542;-76
2021/10/14 06:50:27;;;;;;;9.48;5.90;;;3.70;99.90;;;;;;4917114;29;20490;-75
2021/10/14 06:52:53;;;;;;;6.68;5.47;;;3.80;99.90;;;;;;4917141;29;20024;-75
2021/10/14 06:55:19;;;;;;;8.65;5.97;;;4.10;99.90;;;;;;4916799;29;20050;-76
2021/10/14 06:57:44;;;;;;;7.32;5.57;;;4.20;99.90;;;;;;4919654;29;20139;-78
2021/10/14 07:00:10;;;;;;;6.97;5.18;;;4.40;99.90;;;;;;4918511;29;20363;-78
2021/10/14 07:02:36;;;;;;;7.13;5.70;;;4.10;99.90;;;;;;4919659;29;20036;-77
2021/10/14 07:05:03;;;;;;;11.60;5.70;;;4.20;99.90;;;;;;4916420;29;20558;-76
2021/10/14 07:07:28;;;;;;;6.88;4.85;;;4.40;99.90;;;;;;4922431;29;20024;-77
2021/10/14 07:09:54;;;;;;;8.10;5.63;;;4.60;99.90;;;;;;4919358;29;20111;-77
2021/10/14 07:12:27;;;;;;;7.50;4.95;;;4.70;99.90;;;;;;4919018;29;20099;-76
2021/10/14 07:14:52;;;;;;;8.85;5.72;;;4.80;99.90;;;;;;4918053;29;20099;-77
2021/10/14 07:17:18;;;;;;;8.60;5.38;;;4.80;99.90;;;;;;4918005;29;20111;-77
2021/10/14 07:19:45;;;;;;;6.93;5.20;;;5.00;99.90;;;;;;4918477;29;20020;-76
2021/10/14 07:22:11;;;;;;;6.57;5.18;;;5.00;99.90;;;;;;4915762;29;20024;-77
2021/10/14 07:24:38;;;;;;;9.10;5.57;;;5.20;99.90;;;;;;4916562;29;20343;-76
2021/10/14 07:27:05;;;;;;;5.70;5.07;;;5.30;99.90;;;;;;4916800;29;20049;-77
2021/10/14 07:29:32;;;;;;;7.43;5.53;;;5.00;99.90;;;;;;4916668;29;20056;-75
2021/10/14 07:31:57;;;;;;;5.80;4.80;;;5.20;99.90;;;;;;4917799;29;20032;-79
2021/10/14 07:34:23;;;;;;;7.40;5.35;;;5.20;99.90;;;;;;4915991;29;20526;-77
2021/10/14 07:36:49;;;;;;;6.28;5.22;;;5.40;99.90;;;;;;4918274;29;20115;-76
2021/10/14 07:39:15;;;;;;;6.82;5.30;;;5.50;99.90;;;;;;4916392;29;20032;-77
2021/10/14 07:41:40;;;;;;;10.25;4.97;;;5.50;99.90;;;;;;4917825;29;20032;-76
2021/10/14 07:44:06;;;;;;;8.48;5.50;;;5.80;99.90;;;;;;4917831;29;20391;-76
2021/10/14 07:46:32;;;;;;;11.07;5.15;;;5.60;99.90;;;;;;4917120;29;20475;-77
2021/10/14 07:48:58;;;;;;;13.02;5.05;;;5.60;99.90;;;;;;4917653;29;20028;-77
2021/10/14 07:51:23;;;;;;;9.40;4.90;;;5.80;99.90;;;;;;4916083;29;20035;-76
2021/10/14 07:53:49;;;;;;;6.22;4.70;;;6.10;99.90;;;;;;4917246;29;20043;-76
2021/10/14 07:56:15;;;;;;;7.20;4.32;;;6.20;99.90;;;;;;4916728;29;20395;-75
2021/10/14 07:58:40;;;;;;;5.82;3.97;;;6.70;99.90;;;;;;4916529;29;20032;-76
2021/10/14 08:01:10;;;;;;;7.20;4.60;;;6.80;99.90;;;;;;4915659;29;20036;-75
2021/10/14 08:03:37;;;;;;;4.45;4.05;;;7.00;99.90;;;;;;4915241;29;20028;-76
2021/10/14 08:06:02;;;;;;;10.52;5.10;;;6.80;99.90;;;;;;4916171;29;20049;-76
2021/10/14 08:08:28;;;;;;;5.30;3.75;;;6.70;99.90;;;;;;4916608;29;20082;-77
2021/10/14 08:10:54;;;;;;;4.53;3.90;;;7.40;99.90;;;;;;4916815;29;20036;-75
2021/10/14 08:13:20;;;;;;;5.55;4.10;;;7.50;99.90;;;;;;4916848;29;20026;-76
2021/10/14 08:15:50;;;;;;;5.97;4.30;;;7.10;99.90;;;;;;4916822;29;20016;-76
2021/10/14 08:18:17;;;;;;;6.15;4.18;;;7.50;99.90;;;;;;4917867;29;20076;-76
2021/10/14 08:20:43;;;;;;;4.35;3.70;;;7.30;99.90;;;;;;4916019;29;20058;-76
2021/10/14 08:23:10;;;;;;;3.58;3.28;;;7.60;99.90;;;;;;4914761;29;20032;-74
2021/10/14 08:25:35;;;;;;;5.00;3.80;;;8.20;99.90;;;;;;4915326;29;20059;-75
2021/10/14 08:28:01;;;;;;;6.38;3.15;;;8.30;99.90;;;;;;4915814;29;20068;-75
2021/10/14 08:30:27;;;;;;;4.82;3.20;;;9.20;99.90;;;;;;4915381;29;20036;-76
2021/10/14 08:32:54;;;;;;;5.32;3.05;;;10.60;99.90;;;;;;4916189;29;20471;-76
2021/10/14 08:35:20;;;;;;;7.35;3.50;;;10.90;99.90;;;;;;4914745;29;20039;-77
2021/10/14 08:37:47;;;;;;;5.40;4.03;;;10.60;99.90;;;;;;4915560;29;20034;-75
2021/10/14 08:40:14;;;;;;;5.55;4.93;;;11.00;99.90;;;;;;4915288;29;20048;-76
2021/10/14 08:42:41;;;;;;;4.07;3.30;;;10.50;99.90;;;;;;4915699;29;20750;-76
2021/10/14 08:45:09;;;;;;;7.50;3.65;;;10.80;99.90;;;;;;4914117;29;20498;-75
2021/10/14 08:47:37;;;;;;;3.45;3.15;;;10.90;99.90;;;;;;4915600;29;20387;-75
2021/10/14 08:50:04;;;;;;;4.60;3.20;;;10.80;99.90;;;;;;4915526;29;20149;-76
2021/10/14 08:52:30;;;;;;;3.83;3.13;;;11.40;99.90;;;;;;4915927;29;20036;-76
2021/10/14 08:54:56;;;;;;;7.38;3.40;;;12.40;99.90;;;;;;4912079;29;20031;-78
2021/10/14 08:57:22;;;;;;;5.70;3.05;;;12.90;99.90;;;;;;4915465;29;20028;-83
2021/10/14 08:59:48;;;;;;;3.80;2.88;;;12.20;99.90;;;;;;4917229;29;20040;-84
2021/10/14 09:02:17;;;;;;;3.25;2.40;;;12.10;99.90;;;;;;4913096;29;20104;-84
2021/10/14 09:04:49;;;;;;;4.90;2.63;;;12.10;99.90;;;;;;4917829;29;20351;-85
2021/10/14 09:07:15;;;;;;;2.83;2.63;;;11.30;99.90;;;;;;4917282;29;20024;-84
2021/10/14 09:09:42;;;;;;;5.70;3.15;;;10.90;99.90;;;;;;4917963;29;20028;-84
2021/10/14 09:12:09;;;;;;;4.80;2.90;;;12.00;99.90;;;;;;4917540;29;20028;-85
2021/10/14 09:15:02;;;;;;;3.55;2.88;;;13.70;99.90;;;;;;4918069;29;20087;-83
2021/10/14 09:17:36;;;;;;;3.35;2.20;;;14.00;99.90;;;;;;4915503;29;20123;-82
2021/10/14 09:20:38;;;;;;;4.93;2.72;;;14.50;99.90;;;;;;4915944;29;20029;-84
2021/10/14 09:23:08;;;;;;;4.05;2.92;;;13.40;99.90;;;;;;4915573;29;20067;-82
2021/10/14 09:25:47;;;;;;;3.35;2.88;;;14.40;99.90;;;;;;4917370;29;20031;-82
2021/10/14 09:28:27;;;;;;;3.03;2.60;;;14.70;99.90;;;;;;4918041;29;20028;-81
2021/10/14 09:30:59;;;;;;;2.90;2.40;;;15.50;99.90;;;;;;4918914;29;20031;-81
2021/10/14 09:33:47;;;;;;;4.67;2.67;;;16.30;99.90;;;;;;4917683;29;20103;-82
2021/10/14 09:36:27;;;;;;;3.38;2.20;;;15.90;99.90;;;;;;4916946;29;20095;-80
2021/10/14 09:39:03;;;;;;;5.80;3.00;;;15.10;99.90;;;;;;4920525;29;20020;-81
2021/10/14 09:41:31;;;;;;;3.47;2.50;;;15.40;99.90;;;;;;4920681;29;20032;-81
2021/10/14 09:44:12;;;;;;;7.35;3.10;;;15.00;99.90;;;;;;4920662;29;20399;-82
2021/10/14 09:46:42;;;;;;;5.47;3.07;;;16.30;99.90;;;;;;4920441;29;20059;-83
2021/10/14 09:49:14;;;;;;;4.07;2.70;;;17.70;99.90;;;;;;4919987;29;20038;-82
2021/10/14 09:51:41;;;;;;;3.95;3.03;;;18.90;99.90;;;;;;4915543;29;20025;-79
2021/10/14 09:54:07;;;;;;;3.05;2.65;;;20.10;97.20;;;;;;4918597;29;20028;-79
2021/10/14 09:56:34;;;;;;;3.45;2.67;;;19.50;95.90;;;;;;4917578;29;20068;-81
2021/10/14 09:59:01;;;;;;;5.03;2.88;;;18.20;97.50;;;;;;4920914;29;20035;-81
2021/10/14 10:01:29;;;;;;;4.75;2.55;;;18.30;96.70;;;;;;4918897;29;20087;-81
2021/10/14 10:03:56;;;;;;;6.57;2.58;;;17.80;98.60;;;;;;4920032;29;20124;-83
2021/10/14 10:06:27;;;;;;;6.05;2.65;;;19.20;97.20;;;;;;4918641;29;20472;-79
2021/10/14 10:08:54;;;;;;;5.10;2.90;;;19.40;95.80;;;;;;4919380;29;20036;-79
2021/10/14 10:11:22;;;;;;;5.20;2.47;;;19.00;97.90;;;;;;4919227;29;20028;-81
2021/10/14 10:13:54;;;;;;;3.10;2.50;;;18.50;95.90;;;;;;4920082;29;20024;-81
2021/10/14 10:16:23;;;;;;;6.25;2.65;;;17.20;97.20;;;;;;4920912;29;20028;-80
2021/10/14 10:18:53;;;;;;;3.30;2.28;;;16.80;98.10;;;;;;4918748;29;20039;-81
2021/10/14 10:21:31;;;;;;;3.00;2.15;;;17.50;97.30;;;;;;4917573;29;20028;-82
2021/10/14 10:23:59;;;;;;;6.97;2.60;;;17.60;98.50;;;;;;4921899;29;20032;-80
2021/10/14 10:26:37;;;;;;;4.40;2.35;;;16.80;97.30;;;;;;4926411;29;20024;-81
2021/10/14 10:29:28;;;;;;;4.93;2.28;;;17.50;97.30;;;;;;4920595;29;20165;-82
2021/10/14 10:31:57;;;;;;;2.22;1.88;;;17.80;96.20;;;;;;4913375;29;20044;-83
2021/10/14 10:37:22;;;;;;;4.22;2.00;;;20.00;94.10;;;;;;4919980;29;20047;-82
2021/10/14 10:39:55;;;;;;;4.70;2.35;;;19.20;92.70;;;;;;4920833;29;20020;-82
2021/10/14 10:42:28;;;;;;;4.63;2.08;;;19.60;92.50;;;;;;4901778;29;20032;-81
2021/10/14 10:45:09;;;;;;;4.40;2.17;;;18.80;93.70;;;;;;4902921;29;20033;-81
2021/10/14 10:47:40;;;;;;;4.30;2.13;;;20.40;93.50;;;;;;4917903;29;20048;-83
2021/10/14 10:50:12;;;;;;;6.43;2.15;;;20.30;92.40;;;;;;4913539;29;20033;-82
2021/10/14 10:52:40;;;;;;;2.67;2.08;;;19.90;92.30;;;;;;4903784;29;20153;-83
2021/10/14 10:55:22;;;;;;;4.63;1.73;;;19.60;93.10;;;;;;4916762;29;20032;-80
2021/10/14 10:57:51;;;;;;;4.38;2.30;;;21.10;90.10;;;;;;4909976;29;20575;-82
2021/10/14 11:00:18;;;;;;;2.38;2.10;;;19.90;92.00;;;;;;4910692;29;20036;-82
2021/10/14 11:02:44;;;;;;;3.28;2.20;;;20.70;88.80;;;;;;4921323;29;20044;-82
2021/10/14 11:05:11;;;;;;;4.35;2.13;;;20.20;88.30;;;;;;4918802;29;20028;-84
2021/10/14 11:07:38;;;;;;;4.15;2.38;;;19.00;90.80;;;;;;4921011;29;20051;-82
2021/10/14 11:10:05;;;;;;;2.83;2.15;;;19.70;90.00;;;;;;4921763;29;20091;-82
2021/10/14 11:12:31;;;;;;;3.05;2.30;;;20.30;91.10;;;;;;4919850;29;20059;-80
2021/10/14 11:14:57;;;;;;;2.83;1.95;;;21.20;86.70;;;;;;4919365;29;20058;-80
2021/10/14 11:17:26;;;;;;;3.53;1.75;;;21.40;84.20;;;;;;4919301;29;20403;-80
2021/10/14 11:20:06;;;;;;;4.20;2.38;;;21.90;85.80;;;;;;4919775;29;20547;-80
2021/10/14 11:22:32;;;;;;;3.00;1.80;;;23.00;80.70;;;;;;4918754;29;20472;-80
2021/10/14 11:25:00;;;;;;;4.85;2.00;;;23.20;78.90;;;;;;4918362;29;20885;-80
2021/10/14 11:27:26;;;;;;;2.28;1.73;;;23.50;77.00;;;;;;4918441;29;20035;-80
2021/10/14 11:29:53;;;;;;;2.38;1.73;;;22.50;75.40;;;;;;4916575;29;20538;-80
2021/10/14 11:32:22;;;;;;;3.05;1.67;;;23.40;79.80;;;;;;4918718;29;20030;-80
2021/10/14 11:34:47;;;;;;;7.80;1.77;;;24.30;75.30;;;;;;4917591;29;20031;-80
2021/10/14 11:37:13;;;;;;;2.65;1.20;;;25.10;72.80;;;;;;4918113;29;20016;-80
2021/10/14 11:39:43;;;;;;;2.35;1.65;;;22.80;72.00;;;;;;4916966;29;20368;-81
2021/10/14 11:42:20;;;;;;;5.22;2.03;;;21.30;77.10;;;;;;4919010;29;20095;-80
2021/10/14 11:44:48;;;;;;;4.97;1.77;;;20.90;76.00;;;;;;4916868;29;20104;-80
2021/10/14 11:47:17;;;;;;;2.20;1.30;;;21.40;77.70;;;;;;4917818;29;20028;-80
2021/10/14 11:49:44;;;;;;;2.95;1.50;;;21.00;75.10;;;;;;4919273;29;20028;-82
2021/10/14 11:52:12;;;;;;;2.45;1.40;;;19.90;81.20;;;;;;4919806;29;20039;-81
2021/10/14 11:54:39;;;;;;;3.80;1.30;;;18.20;83.40;;;;;;4918528;29;20644;-80
2021/10/14 11:57:06;;;;;;;2.85;1.42;;;19.00;84.90;;;;;;4918537;29;20021;-80
2021/10/14 11:59:34;;;;;;;2.55;1.50;;;20.90;80.20;;;;;;4918234;29;20040;-79
2021/10/14 12:02:03;;;;;;;2.55;1.33;;;23.50;76.90;;;;;;4916721;29;20028;-80
2021/10/14 12:04:46;;;;;;;2.80;1.20;;;24.80;74.30;;;;;;4913010;29;20032;-80
2021/10/14 12:07:29;;;;;;;2.35;1.42;;;23.90;70.60;;;;;;4900062;29;20054;-81
2021/10/14 12:09:56;;;;;;;2.33;1.40;;;21.60;75.50;;;;;;4911623;29;20055;-81
2021/10/14 12:12:25;;;;;;;1.63;1.38;;;21.60;76.10;;;;;;4917870;29;20288;-80
2021/10/14 12:15:04;;;;;;;1.75;1.20;;;23.40;72.80;;;;;;4916530;29;20043;-82
2021/10/14 12:17:46;;;;;;;3.05;1.60;;;22.70;76.00;;;;;;4917485;29;20565;-82
2021/10/14 12:20:12;;;;;;;;;;;22.10;73.80;;;;;;4917944;29;20044;-82
2021/10/14 12:22:43;;;;;;;2.70;1.60;;;20.60;77.30;;;;;;4917297;29;19986;-81
2021/10/14 12:25:09;;;;;;;3.90;1.65;;;18.90;83.90;;;;;;4917527;29;20051;-82
2021/10/14 12:27:48;;;;;;;3.78;1.40;;;19.60;84.90;;;;;;4918444;29;20028;-81
2021/10/14 12:30:20;;;;;;;2.63;1.50;;;19.50;82.10;;;;;;4918949;29;20032;-81
2021/10/14 12:32:46;;;;;;;1.30;1.20;;;18.70;83.20;;;;;;4919178;29;20025;-82
2021/10/14 12:35:13;;;;;;;3.63;1.40;;;20.40;83.10;;;;;;4917883;29;20024;-82
2021/10/14 12:37:39;;;;;;;6.60;1.60;;;22.00;77.60;;;;;;4918309;29;20032;-82
2021/10/14 12:40:21;;;;;;;1.45;1.13;;;23.30;72.40;;;;;;4919401;29;20020;-82
2021/10/14 12:45:39;;;;;;;4.97;1.40;;;24.40;69.30;;;;;;4917247;29;20051;-81
2021/10/14 12:48:46;;;;;;;3.83;1.40;;;21.80;76.60;;;;;;4917355;29;20031;-83
2021/10/14 12:51:12;;;;;;;1.92;1.35;;;20.30;80.30;;;;;;4917286;29;20033;-83
2021/10/14 12:53:42;;;;;;;2.88;1.20;;;21.40;80.40;;;;;;4917358;29;20029;-81